Time;durP1;ratioP1;P1;durP2;ratioP2;P2;SDS_P1;SDS_P2;PMS_P1;PMS_P2;Temp;Humidity;BMP_temperature;BMP_pressure;BME280_temperature;BME280_humidity;BME280_pressure;Samples;Min_cycle;Max_cycle;Signal;HPM_P1;HPM_P2
2023/09/27 00:01:13;;;;;;;11.90;10.80;;;;;;;;;;5072675;28;20443;-68
2023/09/27 00:03:42;;;;;;;11.33;10.20;;;;;;;;;;5072664;28;20878;-67
2023/09/27 00:06:09;;;;;;;14.10;11.60;;;;;;;;;;5076356;28;20450;-67
2023/09/27 00:08:36;;;;;;;13.57;11.10;;;;;;;;;;5076245;28;20482;-67
2023/09/27 00:11:03;;;;;;;11.43;10.40;;;;;;;;;;5076464;28;20803;-68
2023/09/27 00:13:30;;;;;;;12.33;11.03;;;;;;;;;;5076312;28;20443;-68
2023/09/27 00:15:57;;;;;;;11.90;10.80;;;;;;;;;;5076360;28;20442;-68
2023/09/27 00:18:24;;;;;;;12.33;11.23;;;;;;;;;;5076202;28;20535;-68
2023/09/27 00:20:52;;;;;;;12.50;11.33;;;;;;;;;;5076085;28;20846;-68
2023/09/27 00:23:19;;;;;;;11.67;10.57;;;;;;;;;;5075899;28;20443;-68
2023/09/27 00:25:46;;;;;;;11.83;10.70;;;;;;;;;;5076133;28;20535;-68
2023/09/27 00:28:12;;;;;;;11.97;10.97;;;;;;;;;;5076044;28;20542;-68
2023/09/27 00:30:39;;;;;;;12.80;10.70;;;;;;;;;;5076010;28;20542;-67
2023/09/27 00:33:06;;;;;;;11.87;10.90;;;;;;;;;;5075880;28;20446;-67
2023/09/27 00:35:33;;;;;;;12.20;10.83;;;;;;;;;;5075781;28;20442;-67
2023/09/27 00:38:02;;;;;;;13.10;11.07;;;;;;;;;;5075596;28;20486;-68
2023/09/27 00:40:29;;;;;;;12.03;10.67;;;;;;;;;;5075585;28;20479;-68
2023/09/27 00:42:56;;;;;;;12.03;11.03;;;;;;;;;;5075826;28;20482;-68
2023/09/27 00:45:23;;;;;;;11.60;10.50;;;;;;;;;;5075740;28;20449;-68
2023/09/27 00:47:51;;;;;;;13.03;11.83;;;;;;;;;;5075654;28;20530;-67
2023/09/27 00:50:18;;;;;;;12.47;11.17;;;;;;;;;;5075525;28;20461;-68
2023/09/27 00:52:47;;;;;;;16.23;12.30;;;;;;;;;;5075720;28;20534;-68
2023/09/27 00:55:15;;;;;;;16.97;11.50;;;;;;;;;;5075670;28;20475;-67
2023/09/27 00:57:42;;;;;;;12.70;11.40;;;;;;;;;;5075825;28;20450;-67
2023/09/27 01:00:10;;;;;;;12.67;11.47;;;;;;;;;;5075412;28;20479;-67
2023/09/27 01:02:38;;;;;;;13.07;11.70;;;;;;;;;;5075399;28;20481;-67
2023/09/27 01:05:08;;;;;;;13.83;12.43;;;;;;;;;;5075485;28;20456;-67
2023/09/27 01:07:35;;;;;;;13.60;11.60;;;;;;;;;;5075495;28;20881;-68
2023/09/27 01:10:02;;;;;;;16.57;13.07;;;;;;;;;;5075381;28;20474;-68
2023/09/27 01:12:30;;;;;;;18.83;14.30;;;;;;;;;;5075251;28;20558;-68
2023/09/27 01:14:57;;;;;;;22.53;16.50;;;;;;;;;;5074864;28;20534;-67
2023/09/27 01:17:24;;;;;;;24.73;16.87;;;;;;;;;;5074958;28;20872;-67
2023/09/27 01:19:51;;;;;;;24.80;17.70;;;;;;;;;;5075144;28;20536;-67
2023/09/27 01:22:18;;;;;;;25.67;18.10;;;;;;;;;;5075160;28;21021;-68
2023/09/27 01:24:47;;;;;;;22.63;19.50;;;;;;;;;;5074854;28;20543;-67
2023/09/27 01:27:16;;;;;;;24.33;18.97;;;;;;;;;;5074777;28;20930;-67
2023/09/27 01:29:43;;;;;;;21.77;17.60;;;;;;;;;;5074899;28;20498;-67
2023/09/27 01:32:10;;;;;;;20.60;16.60;;;;;;;;;;5074952;28;20462;-67
2023/09/27 01:34:36;;;;;;;20.43;16.00;;;;;;;;;;5074863;28;20526;-67
2023/09/27 01:37:05;;;;;;;17.27;15.27;;;;;;;;;;5074732;28;20554;-68
2023/09/27 01:39:32;;;;;;;19.77;15.20;;;;;;;;;;5074611;28;20502;-68
2023/09/27 01:42:00;;;;;;;20.23;15.70;;;;;;;;;;5074616;28;20502;-67
2023/09/27 01:44:27;;;;;;;17.70;15.60;;;;;;;;;;5074400;28;20450;-67
2023/09/27 01:46:54;;;;;;;19.83;16.87;;;;;;;;;;5074670;28;20443;-67
2023/09/27 01:49:21;;;;;;;20.00;16.00;;;;;;;;;;5074595;28;20866;-67
2023/09/27 01:51:49;;;;;;;17.53;15.37;;;;;;;;;;5074502;28;20526;-68
2023/09/27 01:54:16;;;;;;;19.60;15.30;;;;;;;;;;5074349;28;20443;-67
2023/09/27 01:56:42;;;;;;;18.53;16.63;;;;;;;;;;5074288;28;20440;-68
2023/09/27 01:59:11;;;;;;;20.23;15.83;;;;;;;;;;5073975;28;20443;-67
2023/09/27 02:01:38;;;;;;;18.87;15.77;;;;;;;;;;5074327;28;20490;-68
2023/09/27 02:04:05;;;;;;;19.50;16.30;;;;;;;;;;5074279;28;20447;-68
2023/09/27 02:06:32;;;;;;;19.63;16.77;;;;;;;;;;5074119;28;20475;-67
2023/09/27 02:08:59;;;;;;;20.27;17.50;;;;;;;;;;5074004;28;20535;-68
2023/09/27 02:11:26;;;;;;;18.80;16.80;;;;;;;;;;5073915;28;20542;-67
2023/09/27 02:13:53;;;;;;;18.03;15.30;;;;;;;;;;5073811;28;20443;-67
2023/09/27 02:16:22;;;;;;;23.00;17.07;;;;;;;;;;5074078;28;20530;-67
2023/09/27 02:18:49;;;;;;;19.70;17.60;;;;;;;;;;5073763;28;20538;-67
2023/09/27 02:21:16;;;;;;;25.70;19.83;;;;;;;;;;5073818;28;20858;-67
2023/09/27 02:23:43;;;;;;;21.17;16.70;;;;;;;;;;5073762;28;20713;-68
2023/09/27 02:26:11;;;;;;;20.83;17.77;;;;;;;;;;5073553;28;20534;-67
2023/09/27 02:28:38;;;;;;;24.67;18.77;;;;;;;;;;5073439;28;20487;-68
2023/09/27 02:31:09;;;;;;;20.63;18.43;;;;;;;;;;5073703;28;20458;-67
2023/09/27 02:33:38;;;;;;;27.47;19.57;;;;;;;;;;5073702;28;20455;-67
2023/09/27 02:36:05;;;;;;;23.63;19.23;;;;;;;;;;5073679;28;20458;-67
2023/09/27 02:38:32;;;;;;;20.13;17.13;;;;;;;;;;5073301;28;20475;-67
2023/09/27 02:40:59;;;;;;;20.50;17.67;;;;;;;;;;5073547;28;20479;-67
2023/09/27 02:43:26;;;;;;;21.63;18.50;;;;;;;;;;5073312;28;21030;-67
2023/09/27 02:45:53;;;;;;;26.57;20.60;;;;;;;;;;5073517;28;20447;-67
2023/09/27 02:48:20;;;;;;;20.83;16.90;;;;;;;;;;5073416;28;20447;-67
2023/09/27 02:50:50;;;;;;;23.90;17.87;;;;;;;;;;5073331;28;20443;-67
2023/09/27 02:53:17;;;;;;;21.90;16.53;;;;;;;;;;5073235;28;20444;-67
2023/09/27 02:55:44;;;;;;;24.53;18.83;;;;;;;;;;5073463;28;20534;-68
2023/09/27 02:58:11;;;;;;;23.50;19.00;;;;;;;;;;5073298;28;20509;-67
2023/09/27 03:00:38;;;;;;;27.00;19.00;;;;;;;;;;5073149;28;20480;-67
2023/09/27 03:03:07;;;;;;;26.90;19.23;;;;;;;;;;5073219;28;20530;-67
2023/09/27 03:05:36;;;;;;;21.07;18.47;;;;;;;;;;5072980;28;20455;-67
2023/09/27 03:08:04;;;;;;;27.83;19.00;;;;;;;;;;5073271;28;20797;-67
2023/09/27 03:10:31;;;;;;;24.93;19.20;;;;;;;;;;5073206;28;20530;-68
2023/09/27 03:12:58;;;;;;;23.90;18.87;;;;;;;;;;5072915;28;20977;-67
2023/09/27 03:15:25;;;;;;;28.47;19.73;;;;;;;;;;5073117;28;20493;-67
2023/09/27 03:17:52;;;;;;;22.97;19.03;;;;;;;;;;5073043;28;20443;-67
2023/09/27 03:20:21;;;;;;;25.47;18.60;;;;;;;;;;5072801;28;20479;-68
2023/09/27 03:22:48;;;;;;;22.73;18.77;;;;;;;;;;5073097;28;20506;-67
2023/09/27 03:25:17;;;;;;;26.73;20.63;;;;;;;;;;5073008;28;20530;-67
2023/09/27 03:27:44;;;;;;;29.17;21.57;;;;;;;;;;5072995;28;20803;-67
2023/09/27 03:30:11;;;;;;;27.80;21.40;;;;;;;;;;5072856;28;20447;-67
2023/09/27 03:32:38;;;;;;;34.07;23.07;;;;;;;;;;5072890;28;21014;-67
2023/09/27 03:35:07;;;;;;;28.87;21.77;;;;;;;;;;5072739;28;20538;-67
2023/09/27 03:37:34;;;;;;;40.40;22.97;;;;;;;;;;5072691;28;20474;-67
2023/09/27 03:40:03;;;;;;;27.80;21.33;;;;;;;;;;5075205;28;20470;-67
2023/09/27 03:42:32;;;;;;;29.73;21.43;;;;;;;;;;5076954;28;20443;-67
2023/09/27 03:44:59;;;;;;;24.67;20.83;;;;;;;;;;5076796;28;20501;-67
2023/09/27 03:47:26;;;;;;;25.37;19.10;;;;;;;;;;5076649;28;20439;-67
2023/09/27 03:49:53;;;;;;;19.90;17.70;;;;;;;;;;5076893;28;20526;-67
2023/09/27 03:52:20;;;;;;;20.77;17.30;;;;;;;;;;5076783;28;20443;-67
2023/09/27 03:54:47;;;;;;;22.47;16.03;;;;;;;;;;5076577;28;21022;-67
2023/09/27 03:57:13;;;;;;;24.07;18.30;;;;;;;;;;5076678;28;20447;-67
2023/09/27 03:59:42;;;;;;;25.13;19.30;;;;;;;;;;5076415;28;20520;-67
2023/09/27 04:02:09;;;;;;;22.90;19.47;;;;;;;;;;5076334;28;20861;-67
2023/09/27 04:04:36;;;;;;;24.03;18.87;;;;;;;;;;5076572;28;20538;-67
2023/09/27 04:07:02;;;;;;;20.77;17.63;;;;;;;;;;5076470;28;20450;-67
2023/09/27 04:09:29;;;;;;;19.93;16.23;;;;;;;;;;5076355;28;20451;-67
2023/09/27 04:11:56;;;;;;;20.17;16.73;;;;;;;;;;5076756;28;20885;-67
2023/09/27 04:14:23;;;;;;;17.73;15.90;;;;;;;;;;5076207;28;20447;-67
2023/09/27 04:16:56;;;;;;;17.50;15.70;;;;;;;;;;5076051;28;20966;-67
2023/09/27 04:19:23;;;;;;;18.30;15.03;;;;;;;;;;5076323;28;20447;-68
2023/09/27 04:21:50;;;;;;;15.83;13.53;;;;;;;;;;5076017;28;20490;-67
2023/09/27 04:24:17;;;;;;;17.00;15.20;;;;;;;;;;5076061;28;20880;-67
2023/09/27 04:26:44;;;;;;;20.10;15.23;;;;;;;;;;5075978;28;20534;-67
2023/09/27 04:29:11;;;;;;;19.33;14.43;;;;;;;;;;5075819;28;20953;-68
2023/09/27 04:31:39;;;;;;;17.60;14.73;;;;;;;;;;5075865;28;21025;-67
2023/09/27 04:34:07;;;;;;;17.70;14.57;;;;;;;;;;5075817;28;20526;-67
2023/09/27 04:36:34;;;;;;;17.23;14.37;;;;;;;;;;5075749;28;20530;-67
2023/09/27 04:39:01;;;;;;;15.20;13.67;;;;;;;;;;5075797;28;20443;-67
2023/09/27 04:41:28;;;;;;;19.70;15.40;;;;;;;;;;5075712;28;20567;-67
2023/09/27 04:43:55;;;;;;;17.60;15.70;;;;;;;;;;5075679;28;21003;-67
2023/09/27 04:46:22;;;;;;;23.63;15.80;;;;;;;;;;5075761;28;20443;-67
2023/09/27 04:48:50;;;;;;;17.40;15.37;;;;;;;;;;5076343;28;20530;-67
2023/09/27 04:51:18;;;;;;;17.70;15.90;;;;;;;;;;5074981;28;20538;-67
2023/09/27 04:53:45;;;;;;;16.70;14.93;;;;;;;;;;5075571;28;20450;-67
2023/09/27 04:56:12;;;;;;;16.27;14.70;;;;;;;;;;5075372;28;20534;-66
2023/09/27 04:58:40;;;;;;;19.40;15.23;;;;;;;;;;5075570;28;20479;-67
2023/09/27 05:01:07;;;;;;;16.17;14.53;;;;;;;;;;5075387;28;20487;-67
2023/09/27 05:03:34;;;;;;;19.10;17.07;;;;;;;;;;5075349;28;20447;-67
2023/09/27 05:06:01;;;;;;;23.43;17.33;;;;;;;;;;5075710;28;20768;-66
2023/09/27 05:08:29;;;;;;;19.53;16.43;;;;;;;;;;5075279;28;20447;-67
2023/09/27 05:10:56;;;;;;;18.57;15.00;;;;;;;;;;5075127;28;20444;-67
2023/09/27 05:13:23;;;;;;;21.30;16.47;;;;;;;;;;5075285;28;20518;-67
2023/09/27 05:15:51;;;;;;;18.70;14.87;;;;;;;;;;5075016;28;20447;-67
2023/09/27 05:18:18;;;;;;;16.73;14.60;;;;;;;;;;5075032;28;20444;-67
2023/09/27 05:20:44;;;;;;;16.50;14.63;;;;;;;;;;5074946;28;20553;-67
2023/09/27 05:23:12;;;;;;;18.30;14.67;;;;;;;;;;5074754;28;20490;-67
2023/09/27 05:25:40;;;;;;;20.33;16.33;;;;;;;;;;5075013;28;20444;-67
2023/09/27 05:28:07;;;;;;;509.00;366.93;;;;;;;;;;5074919;28;20915;-67
2023/09/27 05:30:34;;;;;;;27.83;19.27;;;;;;;;;;5074933;28;20847;-66
2023/09/27 05:33:01;;;;;;;22.20;17.00;;;;;;;;;;5074704;28;20444;-67
2023/09/27 05:35:28;;;;;;;20.60;16.70;;;;;;;;;;5074674;28;20534;-67
2023/09/27 05:37:55;;;;;;;20.03;16.43;;;;;;;;;;5074281;28;20472;-67
2023/09/27 05:40:22;;;;;;;21.57;18.03;;;;;;;;;;5074660;28;20451;-67
2023/09/27 05:42:51;;;;;;;20.57;16.30;;;;;;;;;;5074565;28;20529;-67
2023/09/27 05:45:18;;;;;;;20.40;16.80;;;;;;;;;;5074520;28;20807;-67
2023/09/27 05:47:45;;;;;;;23.43;18.10;;;;;;;;;;5074302;28;20526;-67
2023/09/27 05:50:12;;;;;;;23.17;17.50;;;;;;;;;;5074054;28;20439;-67
2023/09/27 05:52:43;;;;;;;24.07;18.37;;;;;;;;;;5074049;28;20943;-67
2023/09/27 05:55:10;;;;;;;22.93;17.70;;;;;;;;;;5074321;28;20532;-67
2023/09/27 05:57:37;;;;;;;22.40;17.03;;;;;;;;;;5074207;28;20526;-67
2023/09/27 06:00:14;;;;;;;23.97;19.23;;;;;;;;;;5074140;28;20856;-67
2023/09/27 06:02:43;;;;;;;23.80;18.70;;;;;;;;;;5073056;28;20450;-67
2023/09/27 06:05:11;;;;;;;21.03;18.10;;;;;;;;;;5073987;28;20998;-67
2023/09/27 06:07:38;;;;;;;20.30;15.80;;;;;;;;;;5074065;28;20443;-67
2023/09/27 06:10:06;;;;;;;22.27;16.30;;;;;;;;;;5073945;28;20451;-67
2023/09/27 06:12:33;;;;;;;19.43;16.43;;;;;;;;;;5073927;28;20458;-67
2023/09/27 06:15:00;;;;;;;25.83;18.80;;;;;;;;;;5073846;28;20443;-67
2023/09/27 06:17:28;;;;;;;24.70;18.93;;;;;;;;;;5073759;28;20448;-67
2023/09/27 06:19:55;;;;;;;19.00;16.13;;;;;;;;;;5073981;28;20470;-67
2023/09/27 06:22:23;;;;;;;23.73;19.30;;;;;;;;;;5073795;28;20513;-66
2023/09/27 06:24:50;;;;;;;21.37;17.80;;;;;;;;;;5073769;28;20443;-67
2023/09/27 06:27:17;;;;;;;20.37;17.43;;;;;;;;;;5073752;28;20501;-67
2023/09/27 06:29:46;;;;;;;25.70;18.07;;;;;;;;;;5073605;28;20865;-67
2023/09/27 06:32:13;;;;;;;21.80;17.17;;;;;;;;;;5073569;28;20538;-67
2023/09/27 06:34:43;;;;;;;22.30;18.67;;;;;;;;;;5073660;28;20462;-67
2023/09/27 06:37:10;;;;;;;23.40;19.70;;;;;;;;;;5073444;28;20467;-66
2023/09/27 06:39:37;;;;;;;22.70;19.00;;;;;;;;;;5073523;28;20871;-67
2023/09/27 06:42:06;;;;;;;22.60;17.87;;;;;;;;;;5073362;28;20839;-66
2023/09/27 06:44:34;;;;;;;22.37;18.80;;;;;;;;;;5073291;28;20479;-66
2023/09/27 06:47:00;;;;;;;22.27;18.67;;;;;;;;;;5073455;28;20447;-66
2023/09/27 06:49:27;;;;;;;19.30;17.30;;;;;;;;;;5073373;28;20483;-65
2023/09/27 06:51:56;;;;;;;19.60;17.60;;;;;;;;;;5073271;28;20449;-66
2023/09/27 06:54:23;;;;;;;19.67;17.67;;;;;;;;;;5072786;28;20439;-62
2023/09/27 06:56:50;;;;;;;20.07;17.27;;;;;;;;;;5073007;28;20446;-67
2023/09/27 06:59:17;;;;;;;18.73;16.83;;;;;;;;;;5073139;28;20487;-68
2023/09/27 07:01:44;;;;;;;21.50;17.87;;;;;;;;;;5073126;28;20489;-65
2023/09/27 07:04:12;;;;;;;18.70;16.23;;;;;;;;;;5072988;28;20474;-65
2023/09/27 07:06:39;;;;;;;19.40;17.00;;;;;;;;;;5072953;28;20443;-65
2023/09/27 07:09:12;;;;;;;21.27;17.23;;;;;;;;;;5072919;28;20451;-65
2023/09/27 07:11:42;;;;;;;20.03;17.47;;;;;;;;;;5072753;28;20466;-69
2023/09/27 07:14:09;;;;;;;16.97;15.20;;;;;;;;;;5072802;28;20439;-67
2023/09/27 07:16:36;;;;;;;17.30;15.60;;;;;;;;;;5073037;28;20467;-65
2023/09/27 07:19:05;;;;;;;16.60;15.00;;;;;;;;;;5073007;28;20440;-68
2023/09/27 07:21:32;;;;;;;16.27;14.50;;;;;;;;;;5072672;28;20499;-65
2023/09/27 07:23:59;;;;;;;15.80;14.27;;;;;;;;;;5072813;28;20443;-65
2023/09/27 07:26:29;;;;;;;17.40;14.37;;;;;;;;;;5072901;28;20517;-65
2023/09/27 07:28:56;;;;;;;16.30;14.40;;;;;;;;;;5072932;28;20528;-64
2023/09/27 07:31:26;;;;;;;17.50;14.53;;;;;;;;;;5072818;28;20447;-65
2023/09/27 07:33:55;;;;;;;15.27;13.70;;;;;;;;;;5072680;28;20834;-65
2023/09/27 07:36:24;;;;;;;15.57;14.07;;;;;;;;;;5073177;28;20443;-66
2023/09/27 07:38:52;;;;;;;15.83;14.43;;;;;;;;;;5072574;28;20447;-64
2023/09/27 07:41:19;;;;;;;14.67;13.27;;;;;;;;;;5072750;28;20476;-65
2023/09/27 07:43:48;;;;;;;17.57;15.73;;;;;;;;;;5072791;28;20534;-65
2023/09/27 07:46:17;;;;;;;17.70;15.80;;;;;;;;;;5072757;28;20443;-66
2023/09/27 07:48:44;;;;;;;18.93;15.80;;;;;;;;;;5072645;28;20447;-66
2023/09/27 07:51:12;;;;;;;16.63;15.03;;;;;;;;;;5072499;28;20530;-69
2023/09/27 07:53:39;;;;;;;17.50;14.37;;;;;;;;;;5072425;28;20442;-68
2023/09/27 07:56:09;;;;;;;15.30;13.70;;;;;;;;;;5072662;28;20799;-65
2023/09/27 07:58:36;;;;;;;12.70;11.50;;;;;;;;;;5072494;28;20448;-69
2023/09/27 08:01:04;;;;;;;13.70;11.40;;;;;;;;;;5072391;28;20886;-67
2023/09/27 08:03:31;;;;;;;13.00;11.70;;;;;;;;;;5072388;28;20443;-65
2023/09/27 08:05:58;;;;;;;14.97;13.50;;;;;;;;;;5072764;28;20443;-63
2023/09/27 08:08:25;;;;;;;14.57;13.23;;;;;;;;;;5072429;28;20497;-66
2023/09/27 08:10:52;;;;;;;14.80;13.23;;;;;;;;;;5072407;28;20958;-64
2023/09/27 08:13:20;;;;;;;14.50;13.20;;;;;;;;;;5072581;28;20447;-63
2023/09/27 08:15:48;;;;;;;15.07;13.57;;;;;;;;;;5072281;28;20530;-61
2023/09/27 08:18:17;;;;;;;17.03;15.53;;;;;;;;;;5072381;28;20443;-65
2023/09/27 08:20:44;;;;;;;14.93;13.63;;;;;;;;;;5072554;28;20447;-64
2023/09/27 08:23:11;;;;;;;16.23;14.73;;;;;;;;;;5072333;28;20482;-67
2023/09/27 08:26:05;;;;;;;17.33;15.77;;;;;;;;;;5073958;28;20542;-70
2023/09/27 08:28:32;;;;;;;15.77;14.37;;;;;;;;;;5075628;28;20447;-65
2023/09/27 08:30:59;;;;;;;16.60;14.97;;;;;;;;;;5075775;28;20451;-63
2023/09/27 08:33:27;;;;;;;14.63;13.40;;;;;;;;;;5075948;28;20451;-65
2023/09/27 08:35:55;;;;;;;13.90;12.70;;;;;;;;;;5075760;28;20466;-66
2023/09/27 08:38:22;;;;;;;14.90;13.50;;;;;;;;;;5075448;28;20578;-65
2023/09/27 08:40:49;;;;;;;14.57;13.17;;;;;;;;;;5075443;28;20935;-66
2023/09/27 08:43:17;;;;;;;14.03;12.63;;;;;;;;;;5075444;28;20514;-68
2023/09/27 08:45:45;;;;;;;15.00;12.90;;;;;;;;;;5075776;28;20534;-62
2023/09/27 08:48:20;;;;;;;15.10;13.57;;;;;;;;;;5075639;28;20445;-66
2023/09/27 08:50:49;;;;;;;13.70;12.50;;;;;;;;;;5075648;28;20443;-67
2023/09/27 08:53:16;;;;;;;12.93;11.57;;;;;;;;;;5075451;28;20882;-63
2023/09/27 08:55:45;;;;;;;12.67;11.57;;;;;;;;;;5075408;28;20450;-65
2023/09/27 08:58:13;;;;;;;13.50;12.40;;;;;;;;;;5075632;28;20479;-64
2023/09/27 09:00:41;;;;;;;13.30;12.17;;;;;;;;;;5075674;28;21013;-64
2023/09/27 09:03:08;;;;;;;13.20;12.10;;;;;;;;;;5075273;28;20487;-65
2023/09/27 09:05:35;;;;;;;14.13;12.73;;;;;;;;;;5075203;28;20539;-65
2023/09/27 09:08:05;;;;;;;12.80;11.70;;;;;;;;;;5075138;28;20448;-64
2023/09/27 09:10:33;;;;;;;11.40;10.40;;;;;;;;;;5074976;28;20930;-66
2023/09/27 09:13:00;;;;;;;13.73;12.43;;;;;;;;;;5075217;28;20443;-66
2023/09/27 09:15:28;;;;;;;12.37;11.37;;;;;;;;;;5075116;28;20475;-67
2023/09/27 09:17:57;;;;;;;12.80;11.80;;;;;;;;;;5075040;28;20447;-64
2023/09/27 09:20:31;;;;;;;12.60;11.50;;;;;;;;;;5074996;28;20938;-67
2023/09/27 09:23:03;;;;;;;11.33;10.40;;;;;;;;;;5074756;28;21023;-67
2023/09/27 09:25:31;;;;;;;14.53;12.07;;;;;;;;;;5075036;28;20534;-66
2023/09/27 09:28:07;;;;;;;13.10;11.97;;;;;;;;;;5074823;28;20447;-68
2023/09/27 09:30:35;;;;;;;11.27;10.17;;;;;;;;;;5074721;28;20443;-65
2023/09/27 09:33:03;;;;;;;11.70;10.50;;;;;;;;;;5074581;28;20497;-63
2023/09/27 09:35:31;;;;;;;10.90;10.10;;;;;;;;;;5074598;28;20455;-67
2023/09/27 09:37:58;;;;;;;11.27;10.27;;;;;;;;;;5074418;28;20842;-66
2023/09/27 09:40:25;;;;;;;10.27;9.57;;;;;;;;;;5074497;28;20459;-66
2023/09/27 09:42:53;;;;;;;11.13;10.27;;;;;;;;;;5074419;28;20487;-66
2023/09/27 09:45:21;;;;;;;11.43;10.50;;;;;;;;;;5074553;28;20494;-66
2023/09/27 09:47:48;;;;;;;11.83;10.73;;;;;;;;;;5074267;28;20535;-67
2023/09/27 09:50:17;;;;;;;11.27;10.27;;;;;;;;;;5074349;28;20935;-61
2023/09/27 09:52:52;;;;;;;11.90;10.70;;;;;;;;;;5074462;28;20451;-67
2023/09/27 09:55:21;;;;;;;10.57;9.57;;;;;;;;;;5074344;28;20439;-65
2023/09/27 09:57:48;;;;;;;11.40;10.50;;;;;;;;;;5074207;28;20443;-64
2023/09/27 10:00:18;;;;;;;10.70;9.60;;;;;;;;;;5074051;28;20447;-66
2023/09/27 10:02:49;;;;;;;10.57;9.47;;;;;;;;;;5074090;28;21049;-65
2023/09/27 10:05:19;;;;;;;10.60;9.67;;;;;;;;;;5074171;28;20506;-68
2023/09/27 10:07:46;;;;;;;9.17;8.40;;;;;;;;;;5074087;28;20455;-68
2023/09/27 10:10:14;;;;;;;10.57;9.70;;;;;;;;;;5073877;28;20803;-62
2023/09/27 10:12:42;;;;;;;10.60;9.80;;;;;;;;;;5073821;28;20443;-63
2023/09/27 10:15:09;;;;;;;14.00;10.60;;;;;;;;;;5074094;28;20531;-62
2023/09/27 10:17:38;;;;;;;9.93;9.13;;;;;;;;;;5074201;28;20454;-62
2023/09/27 10:20:12;;;;;;;8.97;8.27;;;;;;;;;;5073796;28;20538;-65
2023/09/27 10:22:40;;;;;;;10.30;9.50;;;;;;;;;;5073661;28;20479;-66
2023/09/27 10:25:27;;;;;;;9.27;8.57;;;;;;;;;;5073564;28;20447;-66
2023/09/27 10:28:05;;;;;;;10.47;9.50;;;;;;;;;;5073349;28;20450;-65
2023/09/27 10:30:59;;;;;;;8.70;7.90;;;;;;;;;;5073640;28;20934;-63
2023/09/27 10:33:34;;;;;;;10.40;9.60;;;;;;;;;;5073157;28;20935;-65
2023/09/27 10:36:19;;;;;;;8.27;7.67;;;;;;;;;;5073482;28;20443;-63
2023/09/27 10:39:03;;;;;;;8.90;8.20;;;;;;;;;;5072971;28;20474;-69
2023/09/27 10:41:47;;;;;;;7.43;6.83;;;;;;;;;;5073218;28;20439;-68
2023/09/27 10:44:15;;;;;;;9.27;8.53;;;;;;;;;;5073111;28;20478;-62
2023/09/27 10:46:43;;;;;;;7.77;7.03;;;;;;;;;;5073157;28;20931;-64
2023/09/27 10:49:11;;;;;;;8.83;7.53;;;;;;;;;;5072868;28;20443;-64
2023/09/27 10:51:38;;;;;;;5.17;4.77;;;;;;;;;;5073269;28;20450;-64
2023/09/27 10:54:09;;;;;;;6.67;6.20;;;;;;;;;;5073206;28;20535;-66
2023/09/27 10:56:36;;;;;;;5.97;5.57;;;;;;;;;;5072980;28;20448;-62
2023/09/27 10:59:03;;;;;;;7.00;6.30;;;;;;;;;;5073141;28;20474;-63
2023/09/27 11:01:31;;;;;;;5.70;5.20;;;;;;;;;;5073192;28;20502;-63
2023/09/27 11:03:58;;;;;;;5.80;5.30;;;;;;;;;;5073041;28;20578;-64
2023/09/27 11:06:27;;;;;;;7.03;6.47;;;;;;;;;;5073099;28;20554;-66
2023/09/27 11:09:04;;;;;;;7.07;6.47;;;;;;;;;;5072920;28;20443;-64
2023/09/27 11:11:31;;;;;;;6.70;6.10;;;;;;;;;;5073219;28;20454;-64
2023/09/27 11:13:58;;;;;;;7.47;6.87;;;;;;;;;;5073145;28;20448;-67
2023/09/27 11:16:25;;;;;;;7.77;7.10;;;;;;;;;;5072937;28;20526;-72
2023/09/27 11:18:52;;;;;;;8.23;7.63;;;;;;;;;;5072924;28;20550;-70
2023/09/27 11:21:19;;;;;;;7.77;7.13;;;;;;;;;;5072754;28;20439;-64
2023/09/27 11:23:54;;;;;;;8.10;7.50;;;;;;;;;;5072731;28;20808;-63
2023/09/27 11:26:21;;;;;;;8.70;8.03;;;;;;;;;;5072662;28;21007;-64
2023/09/27 11:28:56;;;;;;;8.70;7.10;;;;;;;;;;5072885;28;20448;-63
2023/09/27 11:31:23;;;;;;;6.60;6.10;;;;;;;;;;5072623;28;20453;-64
2023/09/27 11:33:50;;;;;;;6.73;6.20;;;;;;;;;;5072731;28;20811;-66
2023/09/27 11:36:17;;;;;;;6.40;5.90;;;;;;;;;;5072591;28;20443;-66
2023/09/27 11:38:49;;;;;;;6.47;5.87;;;;;;;;;;5072377;28;20530;-64
2023/09/27 11:41:18;;;;;;;6.07;5.60;;;;;;;;;;5072471;28;20451;-64
2023/09/27 11:43:45;;;;;;;6.00;5.60;;;;;;;;;;5072526;28;20514;-65
2023/09/27 11:46:12;;;;;;;5.10;4.80;;;;;;;;;;5072254;28;20444;-65
2023/09/27 11:48:40;;;;;;;5.90;5.43;;;;;;;;;;5072468;28;20447;-64
2023/09/27 11:51:07;;;;;;;5.73;5.30;;;;;;;;;;5072634;28;20459;-67
2023/09/27 11:53:34;;;;;;;6.90;5.57;;;;;;;;;;5072620;28;20844;-66
2023/09/27 11:56:02;;;;;;;8.67;5.17;;;;;;;;;;5072541;28;20471;-65
2023/09/27 11:58:30;;;;;;;5.93;5.43;;;;;;;;;;5072513;28;20555;-67
2023/09/27 12:00:57;;;;;;;6.57;6.00;;;;;;;;;;5074622;28;20465;-66
2023/09/27 12:03:25;;;;;;;7.07;5.87;;;;;;;;;;5076227;28;20570;-69
2023/09/27 12:05:52;;;;;;;5.63;4.73;;;;;;;;;;5076542;28;20451;-68
2023/09/27 12:08:19;;;;;;;7.47;6.30;;;;;;;;;;5076279;28;20439;-69
2023/09/27 12:10:46;;;;;;;6.57;6.10;;;;;;;;;;5076183;28;20471;-67
2023/09/27 12:13:12;;;;;;;6.27;5.87;;;;;;;;;;5075959;28;21021;-66
2023/09/27 12:15:41;;;;;;;10.27;7.23;;;;;;;;;;5075986;28;20550;-63
2023/09/27 12:18:08;;;;;;;5.77;5.37;;;;;;;;;;5076144;28;20439;-64
2023/09/27 12:20:38;;;;;;;9.57;6.63;;;;;;;;;;5076397;28;20489;-64
2023/09/27 12:23:05;;;;;;;8.10;5.70;;;;;;;;;;5075844;28;20482;-66
2023/09/27 12:25:33;;;;;;;7.23;6.33;;;;;;;;;;5059011;28;20543;-65
2023/09/27 12:28:00;;;;;;;6.50;5.90;;;;;;;;;;5055619;28;20444;-64
2023/09/27 12:30:27;;;;;;;6.67;6.07;;;;;;;;;;5053832;28;20451;-64
2023/09/27 12:32:56;;;;;;;8.47;6.77;;;;;;;;;;5055526;28;20460;-65
2023/09/27 12:35:23;;;;;;;6.50;6.10;;;;;;;;;;5055679;28;21095;-65
2023/09/27 12:37:50;;;;;;;7.00;5.77;;;;;;;;;;5055673;28;20479;-64
2023/09/27 12:40:17;;;;;;;5.93;5.47;;;;;;;;;;5055625;28;20448;-64
2023/09/27 12:42:44;;;;;;;7.50;5.60;;;;;;;;;;5055407;28;20979;-64
2023/09/27 12:45:11;;;;;;;6.60;6.00;;;;;;;;;;5055740;28;20440;-64
2023/09/27 12:47:38;;;;;;;6.60;6.13;;;;;;;;;;5055454;28;20944;-64
2023/09/27 12:50:07;;;;;;;10.90;6.50;;;;;;;;;;5055424;28;21036;-65
2023/09/27 12:52:34;;;;;;;6.83;6.33;;;;;;;;;;5055592;28;20446;-64
2023/09/27 12:55:01;;;;;;;6.93;6.30;;;;;;;;;;5055505;28;20448;-64
2023/09/27 12:57:28;;;;;;;6.60;5.90;;;;;;;;;;5055251;28;20958;-64
2023/09/27 12:59:56;;;;;;;9.63;6.37;;;;;;;;;;5055451;28;20444;-65
2023/09/27 13:02:23;;;;;;;7.27;5.80;;;;;;;;;;5055472;28;20567;-65
2023/09/27 13:04:50;;;;;;;8.87;6.67;;;;;;;;;;5055097;28;20479;-64
2023/09/27 13:07:18;;;;;;;8.20;6.57;;;;;;;;;;5055303;28;20444;-64
2023/09/27 13:09:45;;;;;;;6.97;6.47;;;;;;;;;;5055103;28;21002;-65
2023/09/27 13:12:12;;;;;;;6.80;6.20;;;;;;;;;;5054507;28;20539;-64
2023/09/27 13:14:39;;;;;;;7.67;6.87;;;;;;;;;;5055201;28;20483;-65
2023/09/27 13:17:06;;;;;;;8.30;7.50;;;;;;;;;;5055233;28;20876;-64
2023/09/27 13:19:33;;;;;;;10.10;7.30;;;;;;;;;;5055105;28;20491;-64
2023/09/27 13:22:00;;;;;;;9.53;7.20;;;;;;;;;;5054859;28;20455;-64
2023/09/27 13:24:28;;;;;;;8.77;6.70;;;;;;;;;;5054640;28;20511;-65
2023/09/27 13:26:55;;;;;;;8.77;6.70;;;;;;;;;;5054474;28;21027;-65
2023/09/27 13:29:22;;;;;;;7.07;6.20;;;;;;;;;;5054929;28;20451;-65
2023/09/27 13:31:49;;;;;;;8.87;6.93;;;;;;;;;;5054767;28;20535;-65
2023/09/27 13:34:16;;;;;;;7.20;6.70;;;;;;;;;;5054647;28;20448;-64
2023/09/27 13:36:43;;;;;;;8.50;7.80;;;;;;;;;;5054458;28;20448;-65
2023/09/27 13:39:14;;;;;;;12.67;8.13;;;;;;;;;;5054507;28;20484;-64
2023/09/27 13:41:42;;;;;;;7.00;6.60;;;;;;;;;;5054741;28;20597;-64
2023/09/27 13:44:10;;;;;;;8.87;7.90;;;;;;;;;;5054528;28;20890;-65
2023/09/27 13:46:37;;;;;;;8.10;7.43;;;;;;;;;;5054501;28;20448;-65
2023/09/27 13:49:04;;;;;;;9.27;8.23;;;;;;;;;;5054402;28;20806;-65
2023/09/27 13:51:34;;;;;;;9.00;8.20;;;;;;;;;;5054316;28;20535;-65
2023/09/27 13:54:01;;;;;;;9.80;7.30;;;;;;;;;;5054004;28;20543;-64
2023/09/27 13:56:29;;;;;;;8.23;7.63;;;;;;;;;;5054340;28;20543;-64
2023/09/27 13:58:57;;;;;;;7.43;6.83;;;;;;;;;;5054206;28;20444;-65
2023/09/27 14:01:25;;;;;;;9.53;7.40;;;;;;;;;;5054144;28;20526;-64
2023/09/27 14:03:52;;;;;;;10.50;7.77;;;;;;;;;;5053866;28;20533;-64
2023/09/27 14:06:19;;;;;;;7.77;7.07;;;;;;;;;;5053813;28;20536;-64
2023/09/27 14:08:47;;;;;;;8.67;7.80;;;;;;;;;;5054180;28;20563;-65
2023/09/27 14:11:14;;;;;;;7.40;6.90;;;;;;;;;;5054042;28;20444;-65
2023/09/27 14:13:41;;;;;;;8.10;7.30;;;;;;;;;;5054091;28;20452;-65
2023/09/27 14:16:11;;;;;;;7.63;7.03;;;;;;;;;;5053902;28;20532;-65
2023/09/27 14:18:38;;;;;;;7.70;7.00;;;;;;;;;;5053690;28;20455;-65
2023/09/27 14:21:07;;;;;;;8.97;7.90;;;;;;;;;;5054059;28;20445;-64
2023/09/27 14:23:34;;;;;;;7.73;7.03;;;;;;;;;;5052840;28;20982;-65
2023/09/27 14:26:01;;;;;;;9.30;7.90;;;;;;;;;;5053524;28;20936;-65
2023/09/27 14:28:28;;;;;;;8.30;7.37;;;;;;;;;;5053683;28;20539;-65